Arctic Bay — 9HTD8 — position and weather

sailwx.info

Track history (hours):
 
Tides and Currents Weather Stations Pressure Air Temp Water Temp Dewpoint Dewpoint Depression Visibility Wind Speed Wind Dir Waves Ship Positions

Arctic Bay

Last reported at 2014-Sep-02 20:33 UTC. Time now 2014-Sep-02 21:31 UTC.
Position N 53°47' E 009°23'.

Length 182 m; draft 9.7 m.

Type: Ship. MMSI: 256396000.

Date/timePositionNaut miles runAvg speedWind from/ knotsBaromVisibWave heightAir tempDewpointWater temp
2014-Sep-02 20:33N 53°47' E 009°23'10 9.7
2014-Sep-02 19:33N 53°53' E 009°10'1010.1
2014-Sep-02 18:33N 53°50' E 008°53'1312.7
2014-Sep-02 17:33N 53°58' E 008°35'1313.3
2014-Sep-02 16:33N 53°59' E 008°13'5 4.7
2014-Sep-02 15:33N 54°00' E 008°05'3 3.1
2014-Sep-02 14:32N 54°02' E 008°10'0 0.0
2014-Sep-02 13:32N 54°02' E 008°10'0 0.1
2014-Sep-02 12:28N 54°02' E 008°10'0 0.1
2014-Sep-02 11:19N 54°02' E 008°09'0 0.0
2014-Sep-02 10:22N 54°02' E 008°09'0 0.0
2014-Sep-02 09:28N 54°02' E 008°09'0 0.0
2014-Sep-02 08:31N 54°02' E 008°09'0 0.0
2014-Sep-02 07:31N 54°02' E 008°09'0 0.0
2014-Sep-02 06:31N 54°02' E 008°09'0 0.0
2014-Sep-02 05:31N 54°02' E 008°09'0 0.0
2014-Sep-02 04:31N 54°02' E 008°09'0 0.1
2014-Sep-02 03:31N 54°02' E 008°09'0 0.1
2014-Sep-02 02:28N 54°02' E 008°10'0 0.0
2014-Sep-02 01:31N 54°02' E 008°10'0 0.0
2014-Sep-02 00:31N 54°02' E 008°10'0 0.1
2014-Sep-01 23:31N 54°02' E 008°10'0 0.1
2014-Sep-01 22:31N 54°02' E 008°09'0 0.0
2014-Sep-01 21:31N 54°02' E 008°09'0 0.0
2014-Sep-01 20:31N 54°02' E 008°09'0 0.0
2014-Sep-01 19:31N 54°02' E 008°09'0 0.1
2014-Sep-01 18:28N 54°02' E 008°10'0 0.0
2014-Sep-01 17:31N 54°02' E 008°10'0 0.1
2014-Sep-01 16:31N 54°02' E 008°10'0 0.1
2014-Sep-01 15:19N 54°02' E 008°10'0 0.0
2014-Sep-01 14:28N 54°02' E 008°10'0 0.0
2014-Sep-01 13:31N 54°02' E 008°10'0 0.0
2014-Sep-01 12:31N 54°02' E 008°10'0 0.0
2014-Sep-01 11:31N 54°02' E 008°10'0 0.2
2014-Sep-01 10:31N 54°02' E 008°10'0 0.0
2014-Sep-01 09:28N 54°02' E 008°10'0 0.0
2014-Sep-01 08:22N 54°02' E 008°10'0 0.0
2014-Sep-01 07:16N 54°02' E 008°10'0 0.0
2014-Sep-01 06:31N 54°02' E 008°10'0 0.0
2014-Sep-01 05:31N 54°02' E 008°10'0 0.1
2014-Sep-01 04:28N 54°02' E 008°10'0 0.1
2014-Sep-01 03:25N 54°02' E 008°10'1 0.8
2014-Sep-01 02:33N 54°02' E 008°11'1211.7
2014-Sep-01 01:33N 53°58' E 008°30'1110.9
2014-Sep-01 00:34N 53°52' E 008°44'1312.9
2014-Aug-31 23:34N 53°53' E 009°06'1111.2
2014-Aug-31 22:34N 53°48' E 009°23'1312.6
2014-Aug-31 21:33N 53°37' E 009°34'1111.5
2014-Aug-31 20:33N 53°33' E 009°52'4 4.0
2014-Aug-31 19:32N 53°30' E 009°58'0 0.0
2014-Aug-31 18:32N 53°30' E 009°58'0 0.0
2014-Aug-31 17:28N 53°30' E 009°58'0 0.0
2014-Aug-31 16:32N 53°30' E 009°58'0 0.0
2014-Aug-31 15:22N 53°30' E 009°58'0 0.0
2014-Aug-31 14:29N 53°30' E 009°58'0 0.0
2014-Aug-31 13:29N 53°30' E 009°58'0 0.0
2014-Aug-31 12:29N 53°30' E 009°58'0 0.0
2014-Aug-31 11:28N 53°30' E 009°58'0 0.0
2014-Aug-31 10:25N 53°30' E 009°58'0 0.0
2014-Aug-31 09:32N 53°30' E 009°58'0 0.0
2014-Aug-31 08:32N 53°30' E 009°58'0 0.0
2014-Aug-31 07:32N 53°30' E 009°58'0 0.0
2014-Aug-31 06:32N 53°30' E 009°58'0 0.0
2014-Aug-31 05:32N 53°30' E 009°58'0 0.0
2014-Aug-31 04:29N 53°30' E 009°58'0 0.0
2014-Aug-31 03:28N 53°30' E 009°58'0 0.0
2014-Aug-31 02:28N 53°30' E 009°58'0 0.0
2014-Aug-31 01:28N 53°30' E 009°58'0 0.0
2014-Aug-31 00:22N 53°30' E 009°58'0 0.0
2014-Aug-30 23:32N 53°30' E 009°58'0 0.0
2014-Aug-30 22:29N 53°30' E 009°58'0 0.0
2014-Aug-30 21:29N 53°30' E 009°58'0 0.0
2014-Aug-30 20:29N 53°30' E 009°58'0 0.0
2014-Aug-30 19:28N 53°30' E 009°58'0 0.0
2014-Aug-30 18:32N 53°30' E 009°58'0 0.0
2014-Aug-30 17:32N 53°30' E 009°58'0 0.2
2014-Aug-30 16:33N 53°30' E 009°57'7 7.3
2014-Aug-30 15:33N 53°34' E 009°46'1010.3
2014-Aug-30 14:33N 53°39' E 009°31'1212.2
2014-Aug-30 13:34N 53°50' E 009°22'1111.5
2014-Aug-30 12:33N 53°52' E 009°02'1313.2
2014-Aug-30 11:33N 53°55' E 008°41'1715.4
2014-Aug-30 10:28N 53°60' E 008°13'1213.1
2014-Aug-30 09:33N 54°01' E 007°53'6 6.0
2014-Aug-30 08:33N 54°04' E 007°44'0 0.1
2014-Aug-30 07:30N 54°04' E 007°44'0 0.1
2014-Aug-30 06:33N 54°04' E 007°44'0 0.0
2014-Aug-30 05:33N 54°04' E 007°44'0 0.0
2014-Aug-30 04:33N 54°04' E 007°44'0 0.1
2014-Aug-30 03:33N 54°04' E 007°44'0 0.0
2014-Aug-30 02:30N 54°04' E 007°44'0 0.0
2014-Aug-30 01:33N 54°04' E 007°44'0 0.0
2014-Aug-30 00:24N 54°04' E 007°44'0 0.0
2014-Aug-29 23:33N 54°04' E 007°44'0 0.0
2014-Aug-29 22:33N 54°04' E 007°44'0 0.0
2014-Aug-29 21:33N 54°04' E 007°44'0 0.0
2014-Aug-29 20:24N 54°04' E 007°44'0 0.2
2014-Aug-29 19:33N 54°04' E 007°44'0 0.0
2014-Aug-29 18:24N 54°04' E 007°44'0 0.0
2014-Aug-29 17:30N 54°04' E 007°44'0 0.0
2014-Aug-29 16:33N 54°04' E 007°44'0 0.1
2014-Aug-29 15:33N 54°04' E 007°44'0 0.1
2014-Aug-29 14:24N 54°04' E 007°44'0 0.0
2014-Aug-29 13:27N 54°04' E 007°44'0 0.0
2014-Aug-29 12:30N 54°04' E 007°44'0 0.0
2014-Aug-29 11:27N 54°04' E 007°44'0 0.0
2014-Aug-29 10:30N 54°04' E 007°44'0 0.0
2014-Aug-29 09:27N 54°04' E 007°44'0 0.0
2014-Aug-29 08:33N 54°04' E 007°44'0 0.1
2014-Aug-29 07:33N 54°04' E 007°44'0 0.1
2014-Aug-29 06:24N 54°04' E 007°44'0 0.0
2014-Aug-29 05:27N 54°04' E 007°44'0 0.0
2014-Aug-29 04:30N 54°04' E 007°44'0 0.0
2014-Aug-29 03:33N 54°04' E 007°44'0 0.1
2014-Aug-29 02:30N 54°04' E 007°44'0 0.1
2014-Aug-29 01:24N 54°04' E 007°44'0 0.0
2014-Aug-29 00:33N 54°04' E 007°44'0 0.0
2014-Aug-28 23:30N 54°04' E 007°44'0 0.0
2014-Aug-28 21:07N 54°04' E 007°44'0 0.1
2014-Aug-28 20:06N 54°04' E 007°44'0 0.3
2014-Aug-28 19:33N 54°04' E 007°44'0 0.0
2014-Aug-28 18:27N 54°04' E 007°44'0 0.0
2014-Aug-28 17:33N 54°04' E 007°44'0 0.0
2014-Aug-28 16:30N 54°04' E 007°44'0 0.0
2014-Aug-28 15:12N 54°04' E 007°44'0 0.0
2014-Aug-28 14:27N 54°04' E 007°44'0 0.0
2014-Aug-28 13:33N 54°04' E 007°44'0 0.1
2014-Aug-28 12:30N 54°04' E 007°44'0 0.0
2014-Aug-28 11:30N 54°04' E 007°44'0 0.0
2014-Aug-28 10:24N 54°04' E 007°44'0 0.0
2014-Aug-28 09:33N 54°04' E 007°44'0 0.1
2014-Aug-28 08:24N 54°04' E 007°44'0 0.2
2014-Aug-28 07:33N 54°04' E 007°44'0 0.0
2014-Aug-28 06:33N 54°04' E 007°44'0 0.0
2014-Aug-28 05:30N 54°04' E 007°44'0 0.0
2014-Aug-28 04:27N 54°04' E 007°44'0 0.0
2014-Aug-28 03:33N 54°04' E 007°44'0 0.0
2014-Aug-28 02:30N 54°04' E 007°44'0 0.2
2014-Aug-28 01:33N 54°04' E 007°44'0 0.0
2014-Aug-28 00:24N 54°04' E 007°44'0 0.0
2014-Aug-27 23:33N 54°04' E 007°44'0 0.0
2014-Aug-27 22:21N 54°04' E 007°44'0 0.0
2014-Aug-27 21:33N 54°04' E 007°44'0 0.0
2014-Aug-27 20:33N 54°04' E 007°44'0 0.1
2014-Aug-27 19:33N 54°04' E 007°44'0 0.3
2014-Aug-27 18:34N 54°04' E 007°43'9 9.3
2014-Aug-27 17:33N 54°09' E 007°30'1110.8
2014-Aug-27 16:33N 54°09' E 007°11'22410.2
2014-Aug-26 18:33N 51°42' E 002°31'1110.8
2014-Aug-26 17:33N 51°34' E 002°20'1111.5
2014-Aug-26 16:33N 51°24' E 002°08'1211.5
2014-Aug-26 15:32N 51°13' E 002°03'1313.2
2014-Aug-26 14:34N 51°07' E 001°45'6712.9
2014-Aug-26 09:22N 50°24' E 000°24'  
Track history (hours):
 
Tides and Currents Weather Stations Pressure Air Temp Water Temp Dewpoint Dewpoint Depression Visibility Wind Speed Wind Dir Waves Ship Positions

Arctic Bay

Last reported at 2014-Sep-02 20:33 UTC. Time now 2014-Sep-02 21:31 UTC.
Position N 53°47' E 009°23'.

Length 182 m; draft 9.7 m.

Type: Ship. MMSI: 256396000.

Date/timePositionNaut miles runAvg speedWind from/ knotsBaromVisibWave heightAir tempDewpointWater temp
2014-Sep-02 20:33N 53°47' E 009°23'10 9.7
2014-Sep-02 19:33N 53°53' E 009°10'1010.1
2014-Sep-02 18:33N 53°50' E 008°53'1312.7
2014-Sep-02 17:33N 53°58' E 008°35'1313.3
2014-Sep-02 16:33N 53°59' E 008°13'5 4.7
2014-Sep-02 15:33N 54°00' E 008°05'3 3.1
2014-Sep-02 14:32N 54°02' E 008°10'0 0.0
2014-Sep-02 13:32N 54°02' E 008°10'0 0.1
2014-Sep-02 12:28N 54°02' E 008°10'0 0.1
2014-Sep-02 11:19N 54°02' E 008°09'0 0.0
2014-Sep-02 10:22N 54°02' E 008°09'0 0.0
2014-Sep-02 09:28N 54°02' E 008°09'0 0.0
2014-Sep-02 08:31N 54°02' E 008°09'0 0.0
2014-Sep-02 07:31N 54°02' E 008°09'0 0.0
2014-Sep-02 06:31N 54°02' E 008°09'0 0.0
2014-Sep-02 05:31N 54°02' E 008°09'0 0.0
2014-Sep-02 04:31N 54°02' E 008°09'0 0.1
2014-Sep-02 03:31N 54°02' E 008°09'0 0.1
2014-Sep-02 02:28N 54°02' E 008°10'0 0.0
2014-Sep-02 01:31N 54°02' E 008°10'0 0.0
2014-Sep-02 00:31N 54°02' E 008°10'0 0.1
2014-Sep-01 23:31N 54°02' E 008°10'0 0.1
2014-Sep-01 22:31N 54°02' E 008°09'0 0.0
2014-Sep-01 21:31N 54°02' E 008°09'0 0.0
2014-Sep-01 20:31N 54°02' E 008°09'0 0.0
2014-Sep-01 19:31N 54°02' E 008°09'0 0.1
2014-Sep-01 18:28N 54°02' E 008°10'0 0.0
2014-Sep-01 17:31N 54°02' E 008°10'0 0.1
2014-Sep-01 16:31N 54°02' E 008°10'0 0.1
2014-Sep-01 15:19N 54°02' E 008°10'0 0.0
2014-Sep-01 14:28N 54°02' E 008°10'0 0.0
2014-Sep-01 13:31N 54°02' E 008°10'0 0.0
2014-Sep-01 12:31N 54°02' E 008°10'0 0.0
2014-Sep-01 11:31N 54°02' E 008°10'0 0.2
2014-Sep-01 10:31N 54°02' E 008°10'0 0.0
2014-Sep-01 09:28N 54°02' E 008°10'0 0.0
2014-Sep-01 08:22N 54°02' E 008°10'0 0.0
2014-Sep-01 07:16N 54°02' E 008°10'0 0.0
2014-Sep-01 06:31N 54°02' E 008°10'0 0.0
2014-Sep-01 05:31N 54°02' E 008°10'0 0.1
2014-Sep-01 04:28N 54°02' E 008°10'0 0.1
2014-Sep-01 03:25N 54°02' E 008°10'1 0.8
2014-Sep-01 02:33N 54°02' E 008°11'1211.7
2014-Sep-01 01:33N 53°58' E 008°30'1110.9
2014-Sep-01 00:34N 53°52' E 008°44'1312.9
2014-Aug-31 23:34N 53°53' E 009°06'1111.2
2014-Aug-31 22:34N 53°48' E 009°23'1312.6
2014-Aug-31 21:33N 53°37' E 009°34'1111.5
2014-Aug-31 20:33N 53°33' E 009°52'4 4.0
2014-Aug-31 19:32N 53°30' E 009°58'0 0.0
2014-Aug-31 18:32N 53°30' E 009°58'0 0.0
2014-Aug-31 17:28N 53°30' E 009°58'0 0.0
2014-Aug-31 16:32N 53°30' E 009°58'0 0.0
2014-Aug-31 15:22N 53°30' E 009°58'0 0.0
2014-Aug-31 14:29N 53°30' E 009°58'0 0.0
2014-Aug-31 13:29N 53°30' E 009°58'0 0.0
2014-Aug-31 12:29N 53°30' E 009°58'0 0.0
2014-Aug-31 11:28N 53°30' E 009°58'0 0.0
2014-Aug-31 10:25N 53°30' E 009°58'0 0.0
2014-Aug-31 09:32N 53°30' E 009°58'0 0.0
2014-Aug-31 08:32N 53°30' E 009°58'0 0.0
2014-Aug-31 07:32N 53°30' E 009°58'0 0.0
2014-Aug-31 06:32N 53°30' E 009°58'0 0.0
2014-Aug-31 05:32N 53°30' E 009°58'0 0.0
2014-Aug-31 04:29N 53°30' E 009°58'0 0.0
2014-Aug-31 03:28N 53°30' E 009°58'0 0.0
2014-Aug-31 02:28N 53°30' E 009°58'0 0.0
2014-Aug-31 01:28N 53°30' E 009°58'0 0.0
2014-Aug-31 00:22N 53°30' E 009°58'0 0.0
2014-Aug-30 23:32N 53°30' E 009°58'0 0.0
2014-Aug-30 22:29N 53°30' E 009°58'0 0.0
2014-Aug-30 21:29N 53°30' E 009°58'0 0.0
2014-Aug-30 20:29N 53°30' E 009°58'0 0.0
2014-Aug-30 19:28N 53°30' E 009°58'0 0.0
2014-Aug-30 18:32N 53°30' E 009°58'0 0.0
2014-Aug-30 17:32N 53°30' E 009°58'0 0.2
2014-Aug-30 16:33N 53°30' E 009°57'7 7.3
2014-Aug-30 15:33N 53°34' E 009°46'1010.3
2014-Aug-30 14:33N 53°39' E 009°31'1212.2
2014-Aug-30 13:34N 53°50' E 009°22'1111.5
2014-Aug-30 12:33N 53°52' E 009°02'1313.2
2014-Aug-30 11:33N 53°55' E 008°41'1715.4
2014-Aug-30 10:28N 53°60' E 008°13'1213.1
2014-Aug-30 09:33N 54°01' E 007°53'6 6.0
2014-Aug-30 08:33N 54°04' E 007°44'0 0.1
2014-Aug-30 07:30N 54°04' E 007°44'0 0.1
2014-Aug-30 06:33N 54°04' E 007°44'0 0.0
2014-Aug-30 05:33N 54°04' E 007°44'0 0.0
2014-Aug-30 04:33N 54°04' E 007°44'0 0.1
2014-Aug-30 03:33N 54°04' E 007°44'0 0.0
2014-Aug-30 02:30N 54°04' E 007°44'0 0.0
2014-Aug-30 01:33N 54°04' E 007°44'0 0.0
2014-Aug-30 00:24N 54°04' E 007°44'0 0.0
2014-Aug-29 23:33N 54°04' E 007°44'0 0.0
2014-Aug-29 22:33N 54°04' E 007°44'0 0.0
2014-Aug-29 21:33N 54°04' E 007°44'0 0.0
2014-Aug-29 20:24N 54°04' E 007°44'0 0.2
2014-Aug-29 19:33N 54°04' E 007°44'0 0.0
2014-Aug-29 18:24N 54°04' E 007°44'0 0.0
2014-Aug-29 17:30N 54°04' E 007°44'0 0.0
2014-Aug-29 16:33N 54°04' E 007°44'0 0.1
2014-Aug-29 15:33N 54°04' E 007°44'0 0.1
2014-Aug-29 14:24N 54°04' E 007°44'0 0.0
2014-Aug-29 13:27N 54°04' E 007°44'0 0.0
2014-Aug-29 12:30N 54°04' E 007°44'0 0.0
2014-Aug-29 11:27N 54°04' E 007°44'0 0.0
2014-Aug-29 10:30N 54°04' E 007°44'0 0.0
2014-Aug-29 09:27N 54°04' E 007°44'0 0.0
2014-Aug-29 08:33N 54°04' E 007°44'0 0.1
2014-Aug-29 07:33N 54°04' E 007°44'0 0.1
2014-Aug-29 06:24N 54°04' E 007°44'0 0.0
2014-Aug-29 05:27N 54°04' E 007°44'0 0.0
2014-Aug-29 04:30N 54°04' E 007°44'0 0.0
2014-Aug-29 03:33N 54°04' E 007°44'0 0.1
2014-Aug-29 02:30N 54°04' E 007°44'0 0.1
2014-Aug-29 01:24N 54°04' E 007°44'0 0.0
2014-Aug-29 00:33N 54°04' E 007°44'0 0.0
2014-Aug-28 23:30N 54°04' E 007°44'0 0.0
2014-Aug-28 21:07N 54°04' E 007°44'0 0.1
2014-Aug-28 20:06N 54°04' E 007°44'0 0.3
2014-Aug-28 19:33N 54°04' E 007°44'0 0.0
2014-Aug-28 18:27N 54°04' E 007°44'0 0.0
2014-Aug-28 17:33N 54°04' E 007°44'0 0.0
2014-Aug-28 16:30N 54°04' E 007°44'0 0.0
2014-Aug-28 15:12N 54°04' E 007°44'0 0.0
2014-Aug-28 14:27N 54°04' E 007°44'0 0.0
2014-Aug-28 13:33N 54°04' E 007°44'0 0.1
2014-Aug-28 12:30N 54°04' E 007°44'0 0.0
2014-Aug-28 11:30N 54°04' E 007°44'0 0.0
2014-Aug-28 10:24N 54°04' E 007°44'0 0.0
2014-Aug-28 09:33N 54°04' E 007°44'0 0.1
2014-Aug-28 08:24N 54°04' E 007°44'0 0.2
2014-Aug-28 07:33N 54°04' E 007°44'0 0.0
2014-Aug-28 06:33N 54°04' E 007°44'0 0.0
2014-Aug-28 05:30N 54°04' E 007°44'0 0.0
2014-Aug-28 04:27N 54°04' E 007°44'0 0.0
2014-Aug-28 03:33N 54°04' E 007°44'0 0.0
2014-Aug-28 02:30N 54°04' E 007°44'0 0.2
2014-Aug-28 01:33N 54°04' E 007°44'0 0.0
2014-Aug-28 00:24N 54°04' E 007°44'0 0.0
2014-Aug-27 23:33N 54°04' E 007°44'0 0.0
2014-Aug-27 22:21N 54°04' E 007°44'0 0.0
2014-Aug-27 21:33N 54°04' E 007°44'0 0.0
2014-Aug-27 20:33N 54°04' E 007°44'0 0.1
2014-Aug-27 19:33N 54°04' E 007°44'0 0.3
2014-Aug-27 18:34N 54°04' E 007°43'9 9.3
2014-Aug-27 17:33N 54°09' E 007°30'1110.8
2014-Aug-27 16:33N 54°09' E 007°11'22410.2
2014-Aug-26 18:33N 51°42' E 002°31'1110.8
2014-Aug-26 17:33N 51°34' E 002°20'1111.5
2014-Aug-26 16:33N 51°24' E 002°08'1211.5
2014-Aug-26 15:32N 51°13' E 002°03'1313.2
2014-Aug-26 14:34N 51°07' E 001°45'6712.9
2014-Aug-26 09:22N 50°24' E 000°24'  

Dump ship's entire track history